メルボルン の空港の天気 - METARとTAF

メルボルン空港 ( YMML / MEL ) - オーストラリア ビクトリア州、Melbourne Airport
飛行場実況気象(Metar)
観測時間02/18 10:00 AEDT (02/17 23:00 UTC)
風向・風速南西 8m/s
視程10km以上
天気現象
なし
気温20℃
湿度60%
気圧1008hPa
METARYMML 172300Z 22015KT CAVOK 20/12 Q1008
過去の天気等 Google飛行場航空写真 Wunderground天気予報

過去48時間のMETAR

飛行場予報(TAF)
発表時間: 2/18 07:44 AEDT (2/17 20:44 UTC)
予報対象時間: 18日7時 AEDT ~ 19日11時 AEDT
風向・風速西南西 7m/s
視程10km以上
天気現象弱いしゅう雨
少しの雲 雲底高度 610m
18日13時 AEDT から
風向・風速南南西 7m/s
視程10km以上
天気現象弱いしゅう雨
全天の4割程度の雲 雲底高度 610m
18日15時 AEDT から
風向・風速南 8m/s 瞬間風速 13m/s
視程10km以上
少しの雲 雲底高度 760m
全天の4割程度の雲 雲底高度 1220m
18日21時 AEDT ~ 18日23時 AEDT に徐々に
風向・風速西南西 4m/s
視程10km以上
全天の4割程度の雲 雲底高度 1220m
TAF AMD YMML 172044Z 1720/1824 24014KT 9999 -SHRA FEW020
FM180200 20014KT 9999 -SHRA SCT020
FM180400 19015G25KT 9999 FEW025 SCT040
BECMG 1810/1812 24008KT 9999 SCT040